sensor_id;sensor_type;location;lat;lon;timestamp;pressure;altitude;pressure_sealevel;temperature;humidity
50867;BME280;36839;51.946;21.002;2023-07-24T00:00:38;99344.65;;;20.29;88.31
50867;BME280;36839;51.946;21.002;2023-07-24T00:03:28;99339.56;;;20.22;88.58
50867;BME280;36839;51.946;21.002;2023-07-24T00:06:01;99337.94;;;20.18;89.45
50867;BME280;36839;51.946;21.002;2023-07-24T00:08:29;99326.66;;;20.14;90.24
50867;BME280;36839;51.946;21.002;2023-07-24T00:10:59;99325.74;;;20.10;91.20
50867;BME280;36839;51.946;21.002;2023-07-24T00:13:28;99328.13;;;20.04;91.69
50867;BME280;36839;51.946;21.002;2023-07-24T00:16:07;99330.29;;;19.98;92.43
50867;BME280;36839;51.946;21.002;2023-07-24T00:18:35;99335.27;;;19.94;92.19
50867;BME280;36839;51.946;21.002;2023-07-24T00:21:02;99340.31;;;19.91;91.95
50867;BME280;36839;51.946;21.002;2023-07-24T00:23:31;99341.95;;;19.87;92.33
50867;BME280;36839;51.946;21.002;2023-07-24T00:26:01;99349.73;;;19.82;94.08
50867;BME280;36839;51.946;21.002;2023-07-24T00:28:29;99352.48;;;19.73;95.84
50867;BME280;36839;51.946;21.002;2023-07-24T00:31:00;99358.66;;;19.60;97.16
50867;BME280;36839;51.946;21.002;2023-07-24T00:33:39;99358.83;;;19.52;97.06
50867;BME280;36839;51.946;21.002;2023-07-24T00:36:17;99361.40;;;19.45;96.95
50867;BME280;36839;51.946;21.002;2023-07-24T00:38:45;99359.81;;;19.43;95.92
50867;BME280;36839;51.946;21.002;2023-07-24T00:41:15;99357.80;;;19.42;95.28
50867;BME280;36839;51.946;21.002;2023-07-24T00:43:43;99362.98;;;19.44;94.72
50867;BME280;36839;51.946;21.002;2023-07-24T00:46:11;99365.11;;;19.45;94.47
50867;BME280;36839;51.946;21.002;2023-07-24T00:48:48;99366.63;;;19.48;94.06
50867;BME280;36839;51.946;21.002;2023-07-24T00:51:28;99363.74;;;19.50;93.93
50867;BME280;36839;51.946;21.002;2023-07-24T00:54:02;99373.80;;;19.54;93.71
50867;BME280;36839;51.946;21.002;2023-07-24T00:56:42;99370.88;;;19.57;93.30
50867;BME280;36839;51.946;21.002;2023-07-24T00:59:12;99371.65;;;19.61;93.02
50867;BME280;36839;51.946;21.002;2023-07-24T01:01:46;99372.70;;;19.63;92.76
50867;BME280;36839;51.946;21.002;2023-07-24T01:04:16;99371.91;;;19.67;92.41
50867;BME280;36839;51.946;21.002;2023-07-24T01:06:48;99371.33;;;19.71;91.72
50867;BME280;36839;51.946;21.002;2023-07-24T01:09:29;99370.13;;;19.77;91.30
50867;BME280;36839;51.946;21.002;2023-07-24T01:12:10;99368.56;;;19.80;90.93
50867;BME280;36839;51.946;21.002;2023-07-24T01:17:50;99369.66;;;19.87;89.89
50867;BME280;36839;51.946;21.002;2023-07-24T01:20:23;99368.25;;;19.85;89.61
50867;BME280;36839;51.946;21.002;2023-07-24T01:26:10;99371.27;;;19.82;89.20
50867;BME280;36839;51.946;21.002;2023-07-24T01:28:39;99370.51;;;19.80;89.13
50867;BME280;36839;51.946;21.002;2023-07-24T01:31:13;99373.77;;;19.78;89.42
50867;BME280;36839;51.946;21.002;2023-07-24T01:33:41;99374.77;;;19.73;89.57
50867;BME280;36839;51.946;21.002;2023-07-24T01:36:10;99372.61;;;19.69;89.57
50867;BME280;36839;51.946;21.002;2023-07-24T01:38:39;99376.90;;;19.65;90.48
50867;BME280;36839;51.946;21.002;2023-07-24T01:41:12;99372.95;;;19.59;90.86
50867;BME280;36839;51.946;21.002;2023-07-24T01:43:40;99374.65;;;19.55;91.57
50867;BME280;36839;51.946;21.002;2023-07-24T01:46:08;99369.98;;;19.48;92.09
50867;BME280;36839;51.946;21.002;2023-07-24T01:48:38;99366.21;;;19.42;92.77
50867;BME280;36839;51.946;21.002;2023-07-24T01:51:10;99363.90;;;19.35;93.92
50867;BME280;36839;51.946;21.002;2023-07-24T01:53:37;99368.56;;;19.29;93.67
50867;BME280;36839;51.946;21.002;2023-07-24T01:56:10;99366.48;;;19.21;94.10
50867;BME280;36839;51.946;21.002;2023-07-24T01:58:38;99364.15;;;19.16;94.24
50867;BME280;36839;51.946;21.002;2023-07-24T02:01:06;99359.89;;;19.13;94.35
50867;BME280;36839;51.946;21.002;2023-07-24T02:03:34;99360.45;;;19.08;95.88
50867;BME280;36839;51.946;21.002;2023-07-24T02:06:06;99360.41;;;19.03;96.28
50867;BME280;36839;51.946;21.002;2023-07-24T02:08:35;99359.48;;;18.99;96.14
50867;BME280;36839;51.946;21.002;2023-07-24T02:11:03;99361.11;;;18.93;96.48
50867;BME280;36839;51.946;21.002;2023-07-24T02:13:34;99360.26;;;18.89;96.21
50867;BME280;36839;51.946;21.002;2023-07-24T02:16:02;99359.63;;;18.87;96.67
50867;BME280;36839;51.946;21.002;2023-07-24T02:18:35;99359.33;;;18.83;96.53
50867;BME280;36839;51.946;21.002;2023-07-24T02:21:04;99364.62;;;18.79;97.06
50867;BME280;36839;51.946;21.002;2023-07-24T02:23:36;99357.16;;;18.71;97.58
50867;BME280;36839;51.946;21.002;2023-07-24T02:26:04;99357.80;;;18.65;98.24
50867;BME280;36839;51.946;21.002;2023-07-24T02:28:33;99355.02;;;18.59;98.46
50867;BME280;36839;51.946;21.002;2023-07-24T02:31:02;99352.05;;;18.55;98.18
50867;BME280;36839;51.946;21.002;2023-07-24T02:33:31;99356.33;;;18.51;97.79
50867;BME280;36839;51.946;21.002;2023-07-24T02:36:16;99360.02;;;18.48;98.37
50867;BME280;36839;51.946;21.002;2023-07-24T02:38:46;99360.92;;;18.41;99.16
50867;BME280;36839;51.946;21.002;2023-07-24T02:41:17;99361.13;;;18.34;99.87
50867;BME280;36839;51.946;21.002;2023-07-24T02:43:53;99360.19;;;18.26;100.00
50867;BME280;36839;51.946;21.002;2023-07-24T02:46:21;99358.11;;;18.19;100.00
50867;BME280;36839;51.946;21.002;2023-07-24T02:48:58;99357.49;;;18.12;100.00
50867;BME280;36839;51.946;21.002;2023-07-24T02:51:27;99357.72;;;18.05;100.00
50867;BME280;36839;51.946;21.002;2023-07-24T02:53:57;99358.73;;;18.00;100.00
50867;BME280;36839;51.946;21.002;2023-07-24T02:56:36;99361.05;;;17.96;100.00
50867;BME280;36839;51.946;21.002;2023-07-24T02:59:07;99363.61;;;17.92;100.00
50867;BME280;36839;51.946;21.002;2023-07-24T03:01:38;99359.83;;;17.87;100.00
50867;BME280;36839;51.946;21.002;2023-07-24T03:04:08;99357.23;;;17.82;100.00
50867;BME280;36839;51.946;21.002;2023-07-24T03:06:43;99358.02;;;17.75;100.00
50867;BME280;36839;51.946;21.002;2023-07-24T03:09:15;99359.60;;;17.69;100.00
50867;BME280;36839;51.946;21.002;2023-07-24T03:11:43;99361.76;;;17.65;100.00
50867;BME280;36839;51.946;21.002;2023-07-24T03:14:13;99364.30;;;17.62;100.00
50867;BME280;36839;51.946;21.002;2023-07-24T03:16:52;99370.23;;;17.60;100.00
50867;BME280;36839;51.946;21.002;2023-07-24T03:19:23;99369.28;;;17.59;100.00
50867;BME280;36839;51.946;21.002;2023-07-24T03:21:52;99374.94;;;17.58;100.00
50867;BME280;36839;51.946;21.002;2023-07-24T03:24:21;99371.19;;;17.58;100.00
50867;BME280;36839;51.946;21.002;2023-07-24T03:26:50;99368.05;;;17.60;100.00
50867;BME280;36839;51.946;21.002;2023-07-24T03:29:23;99368.80;;;17.64;100.00
50867;BME280;36839;51.946;21.002;2023-07-24T03:31:50;99365.38;;;17.68;100.00
50867;BME280;36839;51.946;21.002;2023-07-24T03:34:27;99365.02;;;17.75;100.00
50867;BME280;36839;51.946;21.002;2023-07-24T03:36:55;99367.42;;;17.80;100.00
50867;BME280;36839;51.946;21.002;2023-07-24T03:39:24;99367.23;;;17.85;100.00
50867;BME280;36839;51.946;21.002;2023-07-24T03:41:52;99373.30;;;17.89;100.00
50867;BME280;36839;51.946;21.002;2023-07-24T03:44:23;99375.96;;;17.93;100.00
50867;BME280;36839;51.946;21.002;2023-07-24T03:46:54;99376.51;;;17.97;100.00
50867;BME280;36839;51.946;21.002;2023-07-24T03:49:27;99374.20;;;18.01;100.00
50867;BME280;36839;51.946;21.002;2023-07-24T03:51:59;99374.45;;;18.02;100.00
50867;BME280;36839;51.946;21.002;2023-07-24T03:54:27;99376.73;;;18.01;100.00
50867;BME280;36839;51.946;21.002;2023-07-24T03:56:54;99378.69;;;18.02;100.00
50867;BME280;36839;51.946;21.002;2023-07-24T03:59:22;99379.54;;;18.06;100.00
50867;BME280;36839;51.946;21.002;2023-07-24T04:01:57;99382.37;;;18.09;100.00
50867;BME280;36839;51.946;21.002;2023-07-24T04:04:26;99379.13;;;18.13;100.00
50867;BME280;36839;51.946;21.002;2023-07-24T04:06:57;99383.70;;;18.19;100.00
50867;BME280;36839;51.946;21.002;2023-07-24T04:09:26;99383.62;;;18.24;100.00
50867;BME280;36839;51.946;21.002;2023-07-24T04:11:56;99376.65;;;18.28;100.00
50867;BME280;36839;51.946;21.002;2023-07-24T04:14:25;99376.42;;;18.33;100.00
50867;BME280;36839;51.946;21.002;2023-07-24T04:16:55;99379.10;;;18.34;100.00
50867;BME280;36839;51.946;21.002;2023-07-24T04:19:35;99380.39;;;18.38;100.00
50867;BME280;36839;51.946;21.002;2023-07-24T04:22:04;99381.36;;;18.43;100.00
50867;BME280;36839;51.946;21.002;2023-07-24T04:24:35;99379.42;;;18.49;100.00
50867;BME280;36839;51.946;21.002;2023-07-24T04:27:03;99378.88;;;18.54;100.00
50867;BME280;36839;51.946;21.002;2023-07-24T04:29:32;99379.14;;;18.59;100.00
50867;BME280;36839;51.946;21.002;2023-07-24T04:32:02;99377.81;;;18.64;100.00
50867;BME280;36839;51.946;21.002;2023-07-24T04:34:34;99379.58;;;18.68;100.00
50867;BME280;36839;51.946;21.002;2023-07-24T04:37:01;99373.59;;;18.73;100.00
50867;BME280;36839;51.946;21.002;2023-07-24T04:39:29;99373.99;;;18.79;100.00
50867;BME280;36839;51.946;21.002;2023-07-24T04:41:59;99377.83;;;18.86;100.00
50867;BME280;36839;51.946;21.002;2023-07-24T04:44:29;99380.84;;;18.93;100.00
50867;BME280;36839;51.946;21.002;2023-07-24T04:46:58;99385.59;;;18.96;100.00
50867;BME280;36839;51.946;21.002;2023-07-24T04:49:37;99388.44;;;19.02;100.00
50867;BME280;36839;51.946;21.002;2023-07-24T04:52:09;99394.23;;;19.07;100.00
50867;BME280;36839;51.946;21.002;2023-07-24T04:54:44;99393.98;;;19.12;100.00
50867;BME280;36839;51.946;21.002;2023-07-24T04:57:15;99389.96;;;19.16;100.00
50867;BME280;36839;51.946;21.002;2023-07-24T04:59:52;99389.10;;;19.21;100.00
50867;BME280;36839;51.946;21.002;2023-07-24T05:02:28;99386.60;;;19.27;100.00
50867;BME280;36839;51.946;21.002;2023-07-24T05:04:56;99385.15;;;19.34;100.00
50867;BME280;36839;51.946;21.002;2023-07-24T05:07:27;99385.43;;;19.41;100.00
50867;BME280;36839;51.946;21.002;2023-07-24T05:09:57;99383.61;;;19.49;100.00
50867;BME280;36839;51.946;21.002;2023-07-24T05:12:27;99380.27;;;19.56;100.00
50867;BME280;36839;51.946;21.002;2023-07-24T05:15:03;99383.59;;;19.61;100.00
50867;BME280;36839;51.946;21.002;2023-07-24T05:17:34;99379.70;;;19.68;100.00
50867;BME280;36839;51.946;21.002;2023-07-24T05:20:05;99379.66;;;19.79;100.00
50867;BME280;36839;51.946;21.002;2023-07-24T05:22:34;99377.30;;;19.90;99.99
50867;BME280;36839;51.946;21.002;2023-07-24T05:25:05;99372.75;;;20.02;100.00
50867;BME280;36839;51.946;21.002;2023-07-24T05:27:38;99378.41;;;20.11;99.89
50867;BME280;36839;51.946;21.002;2023-07-24T05:30:07;99375.25;;;20.18;99.06
50867;BME280;36839;51.946;21.002;2023-07-24T05:32:36;99376.36;;;20.23;98.31
50867;BME280;36839;51.946;21.002;2023-07-24T05:35:06;99380.89;;;20.28;97.22
50867;BME280;36839;51.946;21.002;2023-07-24T05:37:35;99378.48;;;20.32;95.21
50867;BME280;36839;51.946;21.002;2023-07-24T05:40:04;99376.31;;;20.37;93.94
50867;BME280;36839;51.946;21.002;2023-07-24T05:42:35;99380.20;;;20.49;94.40
50867;BME280;36839;51.946;21.002;2023-07-24T05:45:13;99377.12;;;20.57;92.59
50867;BME280;36839;51.946;21.002;2023-07-24T05:47:46;99370.09;;;20.66;91.34
50867;BME280;36839;51.946;21.002;2023-07-24T05:50:13;99376.65;;;20.77;91.01
50867;BME280;36839;51.946;21.002;2023-07-24T05:52:41;99381.25;;;20.87;88.86
50867;BME280;36839;51.946;21.002;2023-07-24T05:55:10;99381.55;;;20.95;87.54
50867;BME280;36839;51.946;21.002;2023-07-24T05:57:44;99386.24;;;21.03;86.14
50867;BME280;36839;51.946;21.002;2023-07-24T06:00:14;99390.04;;;21.10;84.50
50867;BME280;36839;51.946;21.002;2023-07-24T06:02:43;99384.44;;;21.16;84.23
50867;BME280;36839;51.946;21.002;2023-07-24T06:05:12;99388.00;;;21.21;83.37
50867;BME280;36839;51.946;21.002;2023-07-24T06:07:42;99388.25;;;21.24;82.18
50867;BME280;36839;51.946;21.002;2023-07-24T06:10:10;99386.95;;;21.29;82.44
50867;BME280;36839;51.946;21.002;2023-07-24T06:12:38;99388.23;;;21.29;80.55
50867;BME280;36839;51.946;21.002;2023-07-24T06:15:06;99385.58;;;21.31;80.11
50867;BME280;36839;51.946;21.002;2023-07-24T06:17:34;99390.02;;;21.35;79.12
50867;BME280;36839;51.946;21.002;2023-07-24T06:20:02;99388.96;;;21.41;78.99
50867;BME280;36839;51.946;21.002;2023-07-24T06:22:35;99387.98;;;21.43;78.39
50867;BME280;36839;51.946;21.002;2023-07-24T06:25:04;99385.88;;;21.46;77.66
50867;BME280;36839;51.946;21.002;2023-07-24T06:27:33;99389.70;;;21.52;78.37
50867;BME280;36839;51.946;21.002;2023-07-24T06:30:06;99396.13;;;21.55;76.97
50867;BME280;36839;51.946;21.002;2023-07-24T06:32:37;99393.82;;;21.60;77.07
50867;BME280;36839;51.946;21.002;2023-07-24T06:35:04;99396.92;;;21.65;77.05
50867;BME280;36839;51.946;21.002;2023-07-24T06:37:41;99396.93;;;21.72;76.37
50867;BME280;36839;51.946;21.002;2023-07-24T06:40:09;99394.20;;;21.75;74.28
50867;BME280;36839;51.946;21.002;2023-07-24T06:42:39;99391.09;;;21.83;74.72
50867;BME280;36839;51.946;21.002;2023-07-24T06:45:07;99393.42;;;21.89;73.76
50867;BME280;36839;51.946;21.002;2023-07-24T06:47:36;99397.04;;;21.97;72.88
50867;BME280;36839;51.946;21.002;2023-07-24T06:50:04;99396.23;;;22.10;73.87
50867;BME280;36839;51.946;21.002;2023-07-24T06:52:41;99397.80;;;22.26;76.85
50867;BME280;36839;51.946;21.002;2023-07-24T06:55:08;99401.20;;;22.38;73.73
50867;BME280;36839;51.946;21.002;2023-07-24T06:57:36;99400.54;;;22.49;72.76
50867;BME280;36839;51.946;21.002;2023-07-24T07:00:08;99395.60;;;22.59;72.19
50867;BME280;36839;51.946;21.002;2023-07-24T07:02:38;99392.48;;;22.69;70.62
50867;BME280;36839;51.946;21.002;2023-07-24T07:05:10;99390.23;;;22.76;70.46
50867;BME280;36839;51.946;21.002;2023-07-24T07:07:40;99389.55;;;22.86;69.62
50867;BME280;36839;51.946;21.002;2023-07-24T07:10:08;99389.12;;;22.92;67.95
50867;BME280;36839;51.946;21.002;2023-07-24T07:12:35;99386.65;;;22.98;66.65
50867;BME280;36839;51.946;21.002;2023-07-24T07:15:03;99384.78;;;23.05;68.02
50867;BME280;36839;51.946;21.002;2023-07-24T07:17:35;99388.98;;;23.15;67.78
50867;BME280;36839;51.946;21.002;2023-07-24T07:20:04;99387.52;;;23.23;66.35
50867;BME280;36839;51.946;21.002;2023-07-24T07:22:34;99384.22;;;23.32;66.08
50867;BME280;36839;51.946;21.002;2023-07-24T07:25:03;99385.62;;;23.44;64.48
50867;BME280;36839;51.946;21.002;2023-07-24T07:27:34;99386.60;;;23.49;63.30
50867;BME280;36839;51.946;21.002;2023-07-24T07:30:03;99384.25;;;23.54;63.58
50867;BME280;36839;51.946;21.002;2023-07-24T07:32:44;99382.38;;;23.60;62.69
50867;BME280;36839;51.946;21.002;2023-07-24T07:35:14;99383.92;;;23.66;62.34
50867;BME280;36839;51.946;21.002;2023-07-24T07:37:42;99381.11;;;23.71;60.89
50867;BME280;36839;51.946;21.002;2023-07-24T07:40:14;99384.73;;;23.76;61.04
50867;BME280;36839;51.946;21.002;2023-07-24T07:42:41;99381.66;;;23.81;60.55
50867;BME280;36839;51.946;21.002;2023-07-24T07:45:12;99385.48;;;23.84;60.49
50867;BME280;36839;51.946;21.002;2023-07-24T07:47:40;99389.09;;;23.88;60.86
50867;BME280;36839;51.946;21.002;2023-07-24T07:50:08;99386.83;;;23.98;60.75
50867;BME280;36839;51.946;21.002;2023-07-24T07:52:51;99384.65;;;24.08;60.44
50867;BME280;36839;51.946;21.002;2023-07-24T07:55:23;99381.63;;;24.19;60.43
50867;BME280;36839;51.946;21.002;2023-07-24T07:58:00;99386.52;;;24.22;57.97
50867;BME280;36839;51.946;21.002;2023-07-24T08:00:28;99387.13;;;24.35;58.54
50867;BME280;36839;51.946;21.002;2023-07-24T08:02:57;99384.54;;;24.41;56.88
50867;BME280;36839;51.946;21.002;2023-07-24T08:05:39;99382.50;;;24.45;57.54
50867;BME280;36839;51.946;21.002;2023-07-24T08:08:09;99382.33;;;24.51;57.00
50867;BME280;36839;51.946;21.002;2023-07-24T08:10:40;99385.09;;;24.58;56.67
50867;BME280;36839;51.946;21.002;2023-07-24T08:13:08;99381.61;;;24.72;56.80
50867;BME280;36839;51.946;21.002;2023-07-24T08:15:36;99384.83;;;24.84;56.10
50867;BME280;36839;51.946;21.002;2023-07-24T08:18:09;99372.61;;;24.90;56.02
50867;BME280;36839;51.946;21.002;2023-07-24T08:20:37;99378.56;;;24.94;55.69
50867;BME280;36839;51.946;21.002;2023-07-24T08:23:06;99374.39;;;25.03;56.32
50867;BME280;36839;51.946;21.002;2023-07-24T08:25:34;99371.69;;;25.00;54.64
50867;BME280;36839;51.946;21.002;2023-07-24T08:28:02;99373.58;;;24.97;53.50
50867;BME280;36839;51.946;21.002;2023-07-24T08:30:32;99369.21;;;25.09;53.83
50867;BME280;36839;51.946;21.002;2023-07-24T08:33:00;99369.95;;;25.27;53.82
50867;BME280;36839;51.946;21.002;2023-07-24T08:35:28;99362.99;;;25.36;52.72
50867;BME280;36839;51.946;21.002;2023-07-24T08:37:55;99357.86;;;25.51;52.97
50867;BME280;36839;51.946;21.002;2023-07-24T08:40:24;99356.95;;;25.67;52.40
50867;BME280;36839;51.946;21.002;2023-07-24T08:42:53;99361.51;;;25.78;51.37
50867;BME280;36839;51.946;21.002;2023-07-24T08:45:29;99361.86;;;25.84;50.42
50867;BME280;36839;51.946;21.002;2023-07-24T08:47:59;99358.42;;;25.89;50.61
50867;BME280;36839;51.946;21.002;2023-07-24T08:50:27;99360.58;;;25.98;49.98
50867;BME280;36839;51.946;21.002;2023-07-24T08:52:56;99359.02;;;26.09;50.66
50867;BME280;36839;51.946;21.002;2023-07-24T08:55:25;99352.55;;;26.26;50.04
50867;BME280;36839;51.946;21.002;2023-07-24T08:57:54;99347.24;;;26.33;49.44
50867;BME280;36839;51.946;21.002;2023-07-24T09:00:21;99355.88;;;26.41;49.13
50867;BME280;36839;51.946;21.002;2023-07-24T09:02:49;99352.33;;;26.40;48.45
50867;BME280;36839;51.946;21.002;2023-07-24T09:05:16;99347.02;;;26.49;47.97
50867;BME280;36839;51.946;21.002;2023-07-24T09:07:50;99342.65;;;26.51;47.18
50867;BME280;36839;51.946;21.002;2023-07-24T09:10:25;99339.52;;;26.57;48.11
50867;BME280;36839;51.946;21.002;2023-07-24T09:12:54;99338.67;;;26.70;48.70
50867;BME280;36839;51.946;21.002;2023-07-24T09:15:23;99338.73;;;26.91;48.92
50867;BME280;36839;51.946;21.002;2023-07-24T09:17:56;99336.58;;;27.07;47.57
50867;BME280;36839;51.946;21.002;2023-07-24T09:20:23;99331.25;;;27.09;47.11
50867;BME280;36839;51.946;21.002;2023-07-24T09:22:53;99332.96;;;27.21;47.27
50867;BME280;36839;51.946;21.002;2023-07-24T09:25:42;99331.82;;;27.27;46.83
50867;BME280;36839;51.946;21.002;2023-07-24T09:28:34;99327.46;;;27.29;45.71
50867;BME280;36839;51.946;21.002;2023-07-24T09:31:03;99321.30;;;27.36;46.28
50867;BME280;36839;51.946;21.002;2023-07-24T09:33:38;99320.01;;;27.40;46.39
50867;BME280;36839;51.946;21.002;2023-07-24T09:36:08;99311.49;;;27.34;45.84
50867;BME280;36839;51.946;21.002;2023-07-24T09:38:37;99315.64;;;27.23;45.82
50867;BME280;36839;51.946;21.002;2023-07-24T09:41:06;99316.76;;;27.26;45.73
50867;BME280;36839;51.946;21.002;2023-07-24T09:43:34;99310.20;;;27.26;45.76
50867;BME280;36839;51.946;21.002;2023-07-24T09:46:09;99308.65;;;27.26;45.54
50867;BME280;36839;51.946;21.002;2023-07-24T09:48:39;99306.79;;;27.24;45.28
50867;BME280;36839;51.946;21.002;2023-07-24T09:51:10;99308.50;;;27.12;44.12
50867;BME280;36839;51.946;21.002;2023-07-24T09:56:33;99297.31;;;27.35;44.44
50867;BME280;36839;51.946;21.002;2023-07-24T09:59:04;99292.43;;;27.55;44.73
50867;BME280;36839;51.946;21.002;2023-07-24T10:01:41;99285.52;;;27.78;44.59
50867;BME280;36839;51.946;21.002;2023-07-24T10:04:09;99281.89;;;27.99;44.60
50867;BME280;36839;51.946;21.002;2023-07-24T10:06:39;99281.29;;;28.10;43.66
50867;BME280;36839;51.946;21.002;2023-07-24T10:09:07;99277.30;;;28.13;44.09
50867;BME280;36839;51.946;21.002;2023-07-24T10:11:35;99282.56;;;28.17;43.87
50867;BME280;36839;51.946;21.002;2023-07-24T10:14:02;99283.38;;;28.17;42.93
50867;BME280;36839;51.946;21.002;2023-07-24T10:16:33;99287.65;;;28.31;43.15
50867;BME280;36839;51.946;21.002;2023-07-24T10:19:00;99287.02;;;28.40;41.44
50867;BME280;36839;51.946;21.002;2023-07-24T10:21:29;99289.69;;;28.58;41.56
50867;BME280;36839;51.946;21.002;2023-07-24T10:23:59;99284.23;;;28.77;42.12
50867;BME280;36839;51.946;21.002;2023-07-24T10:26:26;99279.77;;;28.86;41.17
50867;BME280;36839;51.946;21.002;2023-07-24T10:28:56;99273.26;;;28.93;40.18
50867;BME280;36839;51.946;21.002;2023-07-24T10:31:27;99265.30;;;28.92;39.99
50867;BME280;36839;51.946;21.002;2023-07-24T10:33:55;99266.27;;;28.90;39.44
50867;BME280;36839;51.946;21.002;2023-07-24T10:36:24;99267.80;;;28.79;38.83
50867;BME280;36839;51.946;21.002;2023-07-24T10:38:58;99257.85;;;28.74;39.26
50867;BME280;36839;51.946;21.002;2023-07-24T10:41:37;99250.09;;;28.93;40.05
50867;BME280;36839;51.946;21.002;2023-07-24T10:44:04;99239.05;;;29.04;40.07
50867;BME280;36839;51.946;21.002;2023-07-24T10:46:41;99232.27;;;29.10;38.97
50867;BME280;36839;51.946;21.002;2023-07-24T10:49:11;99232.86;;;28.95;38.09
50867;BME280;36839;51.946;21.002;2023-07-24T10:51:38;99227.73;;;28.83;38.34
50867;BME280;36839;51.946;21.002;2023-07-24T10:54:06;99235.23;;;28.80;38.80
50867;BME280;36839;51.946;21.002;2023-07-24T10:56:38;99238.40;;;28.80;39.19
50867;BME280;36839;51.946;21.002;2023-07-24T10:59:07;99228.57;;;28.82;39.14
50867;BME280;36839;51.946;21.002;2023-07-24T11:01:36;99218.44;;;28.80;39.75
50867;BME280;36839;51.946;21.002;2023-07-24T11:04:09;99215.13;;;28.87;39.86
50867;BME280;36839;51.946;21.002;2023-07-24T11:06:43;99212.67;;;29.11;40.16
50867;BME280;36839;51.946;21.002;2023-07-24T11:09:13;99211.95;;;29.18;39.24
50867;BME280;36839;51.946;21.002;2023-07-24T11:11:42;99211.62;;;29.10;38.81
50867;BME280;36839;51.946;21.002;2023-07-24T11:14:13;99215.30;;;29.24;39.61
50867;BME280;36839;51.946;21.002;2023-07-24T11:16:49;99216.75;;;29.51;39.12
50867;BME280;36839;51.946;21.002;2023-07-24T11:19:28;99214.44;;;29.71;38.57
50867;BME280;36839;51.946;21.002;2023-07-24T11:21:57;99206.55;;;29.84;38.63
50867;BME280;36839;51.946;21.002;2023-07-24T11:24:28;99204.50;;;29.99;38.76
50867;BME280;36839;51.946;21.002;2023-07-24T11:26:56;99200.55;;;30.02;37.77
50867;BME280;36839;51.946;21.002;2023-07-24T11:29:24;99202.29;;;30.14;38.54
50867;BME280;36839;51.946;21.002;2023-07-24T11:31:55;99195.50;;;30.28;37.48
50867;BME280;36839;51.946;21.002;2023-07-24T11:34:26;99188.80;;;30.35;37.48
50867;BME280;36839;51.946;21.002;2023-07-24T11:36:54;99183.34;;;30.47;37.65
50867;BME280;36839;51.946;21.002;2023-07-24T11:39:24;99186.71;;;30.55;37.04
50867;BME280;36839;51.946;21.002;2023-07-24T11:41:53;99190.25;;;30.65;37.23
50867;BME280;36839;51.946;21.002;2023-07-24T11:44:25;99185.92;;;30.65;37.46
50867;BME280;36839;51.946;21.002;2023-07-24T11:47:04;99185.83;;;30.73;36.73
50867;BME280;36839;51.946;21.002;2023-07-24T11:49:32;99188.63;;;30.75;36.23
50867;BME280;36839;51.946;21.002;2023-07-24T11:52:05;99188.66;;;30.56;36.38
50867;BME280;36839;51.946;21.002;2023-07-24T11:54:35;99178.34;;;30.44;36.47
50867;BME280;36839;51.946;21.002;2023-07-24T11:57:16;99172.43;;;30.41;37.17
50867;BME280;36839;51.946;21.002;2023-07-24T11:59:45;99166.30;;;30.49;37.22
50867;BME280;36839;51.946;21.002;2023-07-24T12:02:14;99161.56;;;30.34;36.72
50867;BME280;36839;51.946;21.002;2023-07-24T12:04:44;99160.59;;;30.34;36.40
50867;BME280;36839;51.946;21.002;2023-07-24T12:07:34;99160.69;;;30.47;36.39
50867;BME280;36839;51.946;21.002;2023-07-24T12:10:05;99162.07;;;30.59;35.90
50867;BME280;36839;51.946;21.002;2023-07-24T12:12:44;99157.43;;;30.70;35.65
50867;BME280;36839;51.946;21.002;2023-07-24T12:15:12;99154.73;;;30.99;36.61
50867;BME280;36839;51.946;21.002;2023-07-24T12:17:49;99156.13;;;31.17;35.63
50867;BME280;36839;51.946;21.002;2023-07-24T12:20:20;99157.71;;;31.29;35.16
50867;BME280;36839;51.946;21.002;2023-07-24T12:23:00;99154.80;;;31.23;35.24
50867;BME280;36839;51.946;21.002;2023-07-24T12:25:36;99144.75;;;31.20;35.20
50867;BME280;36839;51.946;21.002;2023-07-24T12:28:03;99145.70;;;31.22;35.41
50867;BME280;36839;51.946;21.002;2023-07-24T12:30:30;99144.84;;;31.29;35.33
50867;BME280;36839;51.946;21.002;2023-07-24T12:33:01;99140.05;;;31.52;35.30
50867;BME280;36839;51.946;21.002;2023-07-24T12:35:33;99128.02;;;31.67;35.37
50867;BME280;36839;51.946;21.002;2023-07-24T12:38:01;99117.34;;;31.54;35.03
50867;BME280;36839;51.946;21.002;2023-07-24T12:40:30;99118.42;;;31.45;34.88
50867;BME280;36839;51.946;21.002;2023-07-24T12:43:01;99112.20;;;31.46;34.93
50867;BME280;36839;51.946;21.002;2023-07-24T12:45:28;99105.39;;;31.53;34.70
50867;BME280;36839;51.946;21.002;2023-07-24T12:48:00;99100.86;;;31.70;34.78
50867;BME280;36839;51.946;21.002;2023-07-24T12:50:33;99097.15;;;31.88;34.04
50867;BME280;36839;51.946;21.002;2023-07-24T12:53:02;99097.94;;;32.18;33.65
50867;BME280;36839;51.946;21.002;2023-07-24T12:55:33;99096.44;;;32.43;33.66
50867;BME280;36839;51.946;21.002;2023-07-24T12:58:01;99092.50;;;32.74;33.12
50867;BME280;36839;51.946;21.002;2023-07-24T13:00:32;99083.65;;;32.91;32.12
50867;BME280;36839;51.946;21.002;2023-07-24T13:03:00;99078.08;;;33.03;32.01
50867;BME280;36839;51.946;21.002;2023-07-24T13:05:28;99078.59;;;32.84;32.03
50867;BME280;36839;51.946;21.002;2023-07-24T13:08:04;99075.48;;;32.78;31.96
50867;BME280;36839;51.946;21.002;2023-07-24T13:10:32;99061.73;;;32.89;31.65
50867;BME280;36839;51.946;21.002;2023-07-24T13:13:01;99056.85;;;32.84;31.10
50867;BME280;36839;51.946;21.002;2023-07-24T13:15:35;99052.19;;;32.84;31.52